sensor_id;sensor_type;location;lat;lon;timestamp;pressure;altitude;pressure_sealevel;temperature;humidity
50852;BME280;43953;45.508;-122.806;2023-02-01T00:00:07;101444.44;;;7.93;38.08
50852;BME280;43953;45.508;-122.806;2023-02-01T00:00:39;101454.34;;;7.93;38.41
50852;BME280;43953;45.508;-122.806;2023-02-01T00:01:11;101447.28;;;7.92;38.71
50852;BME280;43953;45.508;-122.806;2023-02-01T00:01:43;101451.81;;;7.91;38.35
50852;BME280;43953;45.508;-122.806;2023-02-01T00:02:15;101451.81;;;7.91;38.14
50852;BME280;43953;45.508;-122.806;2023-02-01T00:02:46;101454.50;;;7.91;38.30
50852;BME280;43953;45.508;-122.806;2023-02-01T00:03:18;101456.34;;;7.91;38.36
50852;BME280;43953;45.508;-122.806;2023-02-01T00:03:50;101453.69;;;7.91;38.20
50852;BME280;43953;45.508;-122.806;2023-02-01T00:04:22;101455.69;;;7.89;38.67
50852;BME280;43953;45.508;-122.806;2023-02-01T00:04:54;101454.69;;;7.90;38.82
50852;BME280;43953;45.508;-122.806;2023-02-01T00:05:25;101454.69;;;7.90;38.47
50852;BME280;43953;45.508;-122.806;2023-02-01T00:05:58;101449.34;;;7.90;38.58
50852;BME280;43953;45.508;-122.806;2023-02-01T00:06:30;101461.72;;;7.91;38.86
50852;BME280;43953;45.508;-122.806;2023-02-01T00:07:02;101457.38;;;7.90;38.45
50852;BME280;43953;45.508;-122.806;2023-02-01T00:07:33;101459.03;;;7.91;38.74
50852;BME280;43953;45.508;-122.806;2023-02-01T00:08:05;101455.53;;;7.90;38.56
50852;BME280;43953;45.508;-122.806;2023-02-01T00:08:37;101461.88;;;7.89;38.88
50852;BME280;43953;45.508;-122.806;2023-02-01T00:09:08;101466.25;;;7.90;38.60
50852;BME280;43953;45.508;-122.806;2023-02-01T00:09:40;101462.75;;;7.90;38.45
50852;BME280;43953;45.508;-122.806;2023-02-01T00:10:12;101469.91;;;7.89;38.95
50852;BME280;43953;45.508;-122.806;2023-02-01T00:10:44;101468.09;;;7.90;39.16
50852;BME280;43953;45.508;-122.806;2023-02-01T00:11:15;101464.56;;;7.89;38.99
50852;BME280;43953;45.508;-122.806;2023-02-01T00:11:47;101461.22;;;7.87;39.34
50852;BME280;43953;45.508;-122.806;2023-02-01T00:12:19;101467.44;;;7.88;39.15
50852;BME280;43953;45.508;-122.806;2023-02-01T00:12:51;101459.53;;;7.86;39.22
50852;BME280;43953;45.508;-122.806;2023-02-01T00:13:22;101461.41;;;7.86;38.67
50852;BME280;43953;45.508;-122.806;2023-02-01T00:13:54;101465.75;;;7.87;39.23
50852;BME280;43953;45.508;-122.806;2023-02-01T00:14:26;101465.75;;;7.87;38.50
50852;BME280;43953;45.508;-122.806;2023-02-01T00:14:58;101464.06;;;7.86;38.54
50852;BME280;43953;45.508;-122.806;2023-02-01T00:15:30;101462.41;;;7.85;38.98
50852;BME280;43953;45.508;-122.806;2023-02-01T00:16:12;101462.41;;;7.85;38.98
50852;BME280;43953;45.508;-122.806;2023-02-01T00:16:45;101461.59;;;7.84;39.40
50852;BME280;43953;45.508;-122.806;2023-02-01T00:17:17;101463.41;;;7.84;39.87
50852;BME280;43953;45.508;-122.806;2023-02-01T00:17:53;101456.56;;;7.81;39.73
50852;BME280;43953;45.508;-122.806;2023-02-01T00:18:25;101459.06;;;7.83;39.69
50852;BME280;43953;45.508;-122.806;2023-02-01T00:19:14;101458.38;;;7.81;38.66
50852;BME280;43953;45.508;-122.806;2023-02-01T00:19:46;101453.22;;;7.79;39.13
50852;BME280;43953;45.508;-122.806;2023-02-01T00:20:17;101455.69;;;7.81;38.59
50852;BME280;43953;45.508;-122.806;2023-02-01T00:20:49;101455.06;;;7.79;38.67
50852;BME280;43953;45.508;-122.806;2023-02-01T00:21:21;101451.38;;;7.80;38.50
50852;BME280;43953;45.508;-122.806;2023-02-01T00:21:53;101456.91;;;7.78;38.25
50852;BME280;43953;45.508;-122.806;2023-02-01T00:22:24;101452.72;;;7.75;38.32
50852;BME280;43953;45.508;-122.806;2023-02-01T00:22:56;101456.41;;;7.74;38.37
50852;BME280;43953;45.508;-122.806;2023-02-01T00:23:28;101451.03;;;7.74;38.43
50852;BME280;43953;45.508;-122.806;2023-02-01T00:23:59;101444.84;;;7.74;38.87
50852;BME280;43953;45.508;-122.806;2023-02-01T00:24:31;101442.34;;;7.72;39.17
50852;BME280;43953;45.508;-122.806;2023-02-01T00:25:03;101436.81;;;7.74;39.48
50852;BME280;43953;45.508;-122.806;2023-02-01T00:25:35;101436.81;;;7.74;39.29
50852;BME280;43953;45.508;-122.806;2023-02-01T00:26:13;101434.13;;;7.74;39.16
50852;BME280;43953;45.508;-122.806;2023-02-01T00:26:45;101438.66;;;7.73;39.01
50852;BME280;43953;45.508;-122.806;2023-02-01T00:27:17;101433.28;;;7.73;39.21
50852;BME280;43953;45.508;-122.806;2023-02-01T00:27:52;101434.94;;;7.74;39.46
50852;BME280;43953;45.508;-122.806;2023-02-01T00:28:23;101442.00;;;7.75;39.80
50852;BME280;43953;45.508;-122.806;2023-02-01T00:28:55;101444.84;;;7.74;39.65
50852;BME280;43953;45.508;-122.806;2023-02-01T00:29:27;101449.22;;;7.75;39.66
50852;BME280;43953;45.508;-122.806;2023-02-01T00:29:58;101447.38;;;7.75;40.10
50852;BME280;43953;45.508;-122.806;2023-02-01T00:30:30;101452.06;;;7.73;39.68
50852;BME280;43953;45.508;-122.806;2023-02-01T00:31:03;101451.03;;;7.74;39.81
50852;BME280;43953;45.508;-122.806;2023-02-01T00:31:35;101448.53;;;7.73;39.94
50852;BME280;43953;45.508;-122.806;2023-02-01T00:32:07;101452.06;;;7.73;39.94
50852;BME280;43953;45.508;-122.806;2023-02-01T00:32:38;101450.38;;;7.72;39.65
50852;BME280;43953;45.508;-122.806;2023-02-01T00:33:10;101451.38;;;7.71;39.39
50852;BME280;43953;45.508;-122.806;2023-02-01T00:33:42;101462.97;;;7.72;39.21
50852;BME280;43953;45.508;-122.806;2023-02-01T00:34:16;101460.28;;;7.72;39.72
50852;BME280;43953;45.508;-122.806;2023-02-01T00:34:48;101462.97;;;7.72;39.67
50852;BME280;43953;45.508;-122.806;2023-02-01T00:35:19;101461.47;;;7.69;39.96
50852;BME280;43953;45.508;-122.806;2023-02-01T00:35:51;101471.16;;;7.70;40.07
50852;BME280;43953;45.508;-122.806;2023-02-01T00:36:27;101473.84;;;7.70;40.07
50852;BME280;43953;45.508;-122.806;2023-02-01T00:36:59;101476.53;;;7.70;40.42
50852;BME280;43953;45.508;-122.806;2023-02-01T00:37:31;101475.84;;;7.68;40.65
50852;BME280;43953;45.508;-122.806;2023-02-01T00:38:03;101482.22;;;7.67;40.11
50852;BME280;43953;45.508;-122.806;2023-02-01T00:38:37;101478.72;;;7.67;40.47
50852;BME280;43953;45.508;-122.806;2023-02-01T00:39:09;101475.19;;;7.66;40.44
50852;BME280;43953;45.508;-122.806;2023-02-01T00:39:41;101470.84;;;7.65;40.27
50852;BME280;43953;45.508;-122.806;2023-02-01T00:40:13;101479.69;;;7.66;40.48
50852;BME280;43953;45.508;-122.806;2023-02-01T00:40:45;101478.03;;;7.65;40.46
50852;BME280;43953;45.508;-122.806;2023-02-01T00:41:19;101484.22;;;7.65;39.95
50852;BME280;43953;45.508;-122.806;2023-02-01T00:41:51;101481.56;;;7.65;40.37
50852;BME280;43953;45.508;-122.806;2023-02-01T00:42:23;101481.41;;;7.67;40.29
50852;BME280;43953;45.508;-122.806;2023-02-01T00:42:55;101480.56;;;7.66;40.77
50852;BME280;43953;45.508;-122.806;2023-02-01T00:43:28;101478.88;;;7.65;40.42
50852;BME280;43953;45.508;-122.806;2023-02-01T00:44:02;101480.56;;;7.66;40.62
50852;BME280;43953;45.508;-122.806;2023-02-01T00:44:34;101484.91;;;7.67;40.80
50852;BME280;43953;45.508;-122.806;2023-02-01T00:45:06;101474.19;;;7.67;40.81
50852;BME280;43953;45.508;-122.806;2023-02-01T00:45:38;101480.56;;;7.66;40.70
50852;BME280;43953;45.508;-122.806;2023-02-01T00:46:11;101476.03;;;7.67;40.54
50852;BME280;43953;45.508;-122.806;2023-02-01T00:46:43;101478.03;;;7.65;40.97
50852;BME280;43953;45.508;-122.806;2023-02-01T00:47:14;101474.19;;;7.67;40.62
50852;BME280;43953;45.508;-122.806;2023-02-01T00:47:46;101468.16;;;7.65;40.72
50852;BME280;43953;45.508;-122.806;2023-02-01T00:48:18;101467.16;;;7.66;40.68
50852;BME280;43953;45.508;-122.806;2023-02-01T00:48:50;101466.50;;;7.64;40.49
50852;BME280;43953;45.508;-122.806;2023-02-01T00:49:22;101464.81;;;7.63;40.59
50852;BME280;43953;45.508;-122.806;2023-02-01T00:49:53;101460.44;;;7.62;40.84
50852;BME280;43953;45.508;-122.806;2023-02-01T00:50:25;101461.63;;;7.60;40.33
50852;BME280;43953;45.508;-122.806;2023-02-01T00:51:01;101456.13;;;7.61;40.01
50852;BME280;43953;45.508;-122.806;2023-02-01T00:51:32;101449.09;;;7.60;40.29
50852;BME280;43953;45.508;-122.806;2023-02-01T00:52:04;101458.13;;;7.59;40.69
50852;BME280;43953;45.508;-122.806;2023-02-01T00:52:36;101453.59;;;7.60;40.59
50852;BME280;43953;45.508;-122.806;2023-02-01T00:53:09;101448.41;;;7.58;40.46
50852;BME280;43953;45.508;-122.806;2023-02-01T00:53:41;101443.06;;;7.58;41.29
50852;BME280;43953;45.508;-122.806;2023-02-01T00:54:13;101442.38;;;7.56;40.85
50852;BME280;43953;45.508;-122.806;2023-02-01T00:54:44;101443.22;;;7.57;40.73
50852;BME280;43953;45.508;-122.806;2023-02-01T00:55:16;101438.69;;;7.57;40.67
50852;BME280;43953;45.508;-122.806;2023-02-01T00:55:48;101445.72;;;7.58;40.63
50852;BME280;43953;45.508;-122.806;2023-02-01T00:56:20;101431.66;;;7.56;41.01
50852;BME280;43953;45.508;-122.806;2023-02-01T00:56:52;101437.03;;;7.56;40.38
50852;BME280;43953;45.508;-122.806;2023-02-01T00:57:23;101428.16;;;7.56;40.47
50852;BME280;43953;45.508;-122.806;2023-02-01T00:57:55;101427.31;;;7.55;40.96
50852;BME280;43953;45.508;-122.806;2023-02-01T00:58:27;101422.13;;;7.53;41.05
50852;BME280;43953;45.508;-122.806;2023-02-01T00:58:58;101421.28;;;7.53;40.54
50852;BME280;43953;45.508;-122.806;2023-02-01T00:59:30;101417.94;;;7.51;40.45
50852;BME280;43953;45.508;-122.806;2023-02-01T01:00:02;101410.25;;;7.48;40.59
50852;BME280;43953;45.508;-122.806;2023-02-01T01:00:34;101419.28;;;7.47;41.29
50852;BME280;43953;45.508;-122.806;2023-02-01T01:01:08;101418.63;;;7.45;41.00
50852;BME280;43953;45.508;-122.806;2023-02-01T01:01:40;101417.97;;;7.43;41.03
50852;BME280;43953;45.508;-122.806;2023-02-01T01:02:11;101419.78;;;7.42;41.15
50852;BME280;43953;45.508;-122.806;2023-02-01T01:02:45;101419.78;;;7.42;41.14
50852;BME280;43953;45.508;-122.806;2023-02-01T01:03:17;101421.47;;;7.43;41.38
50852;BME280;43953;45.508;-122.806;2023-02-01T01:03:53;101418.97;;;7.42;41.59
50852;BME280;43953;45.508;-122.806;2023-02-01T01:04:26;101422.66;;;7.41;40.77
50852;BME280;43953;45.508;-122.806;2023-02-01T01:04:57;101424.31;;;7.42;41.02
50852;BME280;43953;45.508;-122.806;2023-02-01T01:05:29;101424.31;;;7.42;40.86
50852;BME280;43953;45.508;-122.806;2023-02-01T01:06:04;101429.69;;;7.42;41.63
50852;BME280;43953;45.508;-122.806;2023-02-01T01:06:37;101429.69;;;7.42;40.86
50852;BME280;43953;45.508;-122.806;2023-02-01T01:07:08;101434.06;;;7.43;41.19
50852;BME280;43953;45.508;-122.806;2023-02-01T01:07:40;101431.38;;;7.43;41.13
50852;BME280;43953;45.508;-122.806;2023-02-01T01:08:12;101427.00;;;7.42;41.34
50852;BME280;43953;45.508;-122.806;2023-02-01T01:08:44;101429.69;;;7.42;41.40
50852;BME280;43953;45.508;-122.806;2023-02-01T01:09:16;101429.69;;;7.42;41.20
50852;BME280;43953;45.508;-122.806;2023-02-01T01:09:48;101435.03;;;7.42;41.15
50852;BME280;43953;45.508;-122.806;2023-02-01T01:10:19;101437.72;;;7.42;41.45
50852;BME280;43953;45.508;-122.806;2023-02-01T01:10:51;101424.31;;;7.42;41.68
50852;BME280;43953;45.508;-122.806;2023-02-01T01:11:26;101434.22;;;7.41;41.74
50852;BME280;43953;45.508;-122.806;2023-02-01T01:11:58;101427.19;;;7.40;41.78
50852;BME280;43953;45.508;-122.806;2023-02-01T01:12:33;101427.34;;;7.39;41.15
50852;BME280;43953;45.508;-122.806;2023-02-01T01:13:05;101424.84;;;7.37;41.40
50852;BME280;43953;45.508;-122.806;2023-02-01T01:13:37;101426.69;;;7.37;41.53
50852;BME280;43953;45.508;-122.806;2023-02-01T01:14:09;101427.53;;;7.37;41.52
50852;BME280;43953;45.508;-122.806;2023-02-01T01:14:42;101425.69;;;7.38;41.70
50852;BME280;43953;45.508;-122.806;2023-02-01T01:15:13;101425.69;;;7.38;41.51
50852;BME280;43953;45.508;-122.806;2023-02-01T01:15:45;101420.47;;;7.36;41.25
50852;BME280;43953;45.508;-122.806;2023-02-01T01:16:18;101417.16;;;7.34;40.87
50852;BME280;43953;45.508;-122.806;2023-02-01T01:16:50;101421.84;;;7.32;41.20
50852;BME280;43953;45.508;-122.806;2023-02-01T01:17:21;101417.97;;;7.35;41.51
50852;BME280;43953;45.508;-122.806;2023-02-01T01:17:53;101419.00;;;7.34;40.99
50852;BME280;43953;45.508;-122.806;2023-02-01T01:18:25;101424.38;;;7.34;41.14
50852;BME280;43953;45.508;-122.806;2023-02-01T01:18:57;101417.16;;;7.34;40.92
50852;BME280;43953;45.508;-122.806;2023-02-01T01:19:29;101426.03;;;7.35;40.64
50852;BME280;43953;45.508;-122.806;2023-02-01T01:20:01;101423.34;;;7.35;41.02
50852;BME280;43953;45.508;-122.806;2023-02-01T01:20:38;101428.03;;;7.33;41.84
50852;BME280;43953;45.508;-122.806;2023-02-01T01:21:12;101430.69;;;7.33;41.66
50852;BME280;43953;45.508;-122.806;2023-02-01T01:21:44;101434.41;;;7.32;41.68
50852;BME280;43953;45.508;-122.806;2023-02-01T01:22:16;101426.38;;;7.32;41.37
50852;BME280;43953;45.508;-122.806;2023-02-01T01:22:49;101433.56;;;7.31;42.21
50852;BME280;43953;45.508;-122.806;2023-02-01T01:23:20;101437.06;;;7.32;42.21
50852;BME280;43953;45.508;-122.806;2023-02-01T01:23:52;101440.78;;;7.31;41.70
50852;BME280;43953;45.508;-122.806;2023-02-01T01:24:24;101442.78;;;7.28;42.20
50852;BME280;43953;45.508;-122.806;2023-02-01T01:24:56;101440.09;;;7.28;41.97
50852;BME280;43953;45.508;-122.806;2023-02-01T01:25:27;101449.13;;;7.27;41.92
50852;BME280;43953;45.508;-122.806;2023-02-01T01:25:59;101442.94;;;7.27;41.77
50852;BME280;43953;45.508;-122.806;2023-02-01T01:26:31;101441.28;;;7.26;42.17
50852;BME280;43953;45.508;-122.806;2023-02-01T01:27:03;101435.09;;;7.25;41.57
50852;BME280;43953;45.508;-122.806;2023-02-01T01:27:34;101433.22;;;7.26;41.65
50852;BME280;43953;45.508;-122.806;2023-02-01T01:28:07;101435.09;;;7.25;42.06
50852;BME280;43953;45.508;-122.806;2023-02-01T01:28:38;101435.91;;;7.26;41.48
50852;BME280;43953;45.508;-122.806;2023-02-01T01:29:10;101433.38;;;7.24;42.09
50852;BME280;43953;45.508;-122.806;2023-02-01T01:29:42;101435.22;;;7.24;41.45
50852;BME280;43953;45.508;-122.806;2023-02-01T01:30:14;101432.75;;;7.22;41.60
50852;BME280;43953;45.508;-122.806;2023-02-01T01:30:45;101427.53;;;7.21;42.10
50852;BME280;43953;45.508;-122.806;2023-02-01T01:31:19;101435.09;;;7.17;41.71
50852;BME280;43953;45.508;-122.806;2023-02-01T01:31:51;101431.91;;;7.14;42.04
50852;BME280;43953;45.508;-122.806;2023-02-01T01:32:23;101429.25;;;7.14;42.03
50852;BME280;43953;45.508;-122.806;2023-02-01T01:32:54;101427.53;;;7.13;42.20
50852;BME280;43953;45.508;-122.806;2023-02-01T01:33:26;101440.94;;;7.13;41.91
50852;BME280;43953;45.508;-122.806;2023-02-01T01:33:59;101429.38;;;7.12;42.40
50852;BME280;43953;45.508;-122.806;2023-02-01T01:34:31;101438.44;;;7.11;42.35
50852;BME280;43953;45.508;-122.806;2023-02-01T01:35:03;101439.44;;;7.10;42.05
50852;BME280;43953;45.508;-122.806;2023-02-01T01:35:35;101438.44;;;7.11;42.24
50852;BME280;43953;45.508;-122.806;2023-02-01T01:36:11;101433.91;;;7.12;42.19
50852;BME280;43953;45.508;-122.806;2023-02-01T01:36:43;101437.41;;;7.12;42.18
50852;BME280;43953;45.508;-122.806;2023-02-01T01:37:15;101429.38;;;7.12;41.63
50852;BME280;43953;45.508;-122.806;2023-02-01T01:37:46;101426.72;;;7.12;42.01
50852;BME280;43953;45.508;-122.806;2023-02-01T01:38:18;101431.09;;;7.13;41.69
50852;BME280;43953;45.508;-122.806;2023-02-01T01:38:50;101428.41;;;7.13;41.90
50852;BME280;43953;45.508;-122.806;2023-02-01T01:39:21;101431.91;;;7.14;42.00
50852;BME280;43953;45.508;-122.806;2023-02-01T01:39:53;101433.75;;;7.13;41.79
50852;BME280;43953;45.508;-122.806;2023-02-01T01:40:28;101425.72;;;7.13;41.81
50852;BME280;43953;45.508;-122.806;2023-02-01T01:41:00;101430.22;;;7.13;42.15
50852;BME280;43953;45.508;-122.806;2023-02-01T01:41:32;101430.22;;;7.13;42.18
50852;BME280;43953;45.508;-122.806;2023-02-01T01:42:04;101432.06;;;7.12;42.18
50852;BME280;43953;45.508;-122.806;2023-02-01T01:42:40;101435.75;;;7.11;42.36
50852;BME280;43953;45.508;-122.806;2023-02-01T01:43:14;101427.03;;;7.09;42.24
50852;BME280;43953;45.508;-122.806;2023-02-01T01:43:53;101429.09;;;7.07;42.21
50852;BME280;43953;45.508;-122.806;2023-02-01T01:45:04;101431.91;;;7.05;42.51
50852;BME280;43953;45.508;-122.806;2023-02-01T01:45:36;101423.53;;;7.00;42.67
50852;BME280;43953;45.508;-122.806;2023-02-01T01:46:08;101417.69;;;6.97;42.85
50852;BME280;43953;45.508;-122.806;2023-02-01T01:46:39;101417.53;;;6.98;42.29
50852;BME280;43953;45.508;-122.806;2023-02-01T01:47:12;101417.00;;;6.95;41.98
50852;BME280;43953;45.508;-122.806;2023-02-01T01:47:51;101414.53;;;6.93;42.27
50852;BME280;43953;45.508;-122.806;2023-02-01T01:48:29;101412.00;;;6.92;41.97
50852;BME280;43953;45.508;-122.806;2023-02-01T01:49:07;101413.00;;;6.91;42.38
50852;BME280;43953;45.508;-122.806;2023-02-01T01:49:40;101405.16;;;6.89;42.26
50852;BME280;43953;45.508;-122.806;2023-02-01T01:50:16;101403.31;;;6.90;42.28
50852;BME280;43953;45.508;-122.806;2023-02-01T01:51:00;101397.97;;;6.90;42.58
50852;BME280;43953;45.508;-122.806;2023-02-01T01:51:47;101402.63;;;6.88;42.73
50852;BME280;43953;45.508;-122.806;2023-02-01T01:52:20;101395.63;;;6.87;42.82
50852;BME280;43953;45.508;-122.806;2023-02-01T01:52:55;101400.13;;;6.86;42.48
50852;BME280;43953;45.508;-122.806;2023-02-01T01:53:33;101394.94;;;6.84;42.69
50852;BME280;43953;45.508;-122.806;2023-02-01T01:55:00;101411.16;;;6.83;42.28
50852;BME280;43953;45.508;-122.806;2023-02-01T01:55:35;101411.00;;;6.84;42.17
50852;BME280;43953;45.508;-122.806;2023-02-01T01:56:08;101403.81;;;6.85;42.18
50852;BME280;43953;45.508;-122.806;2023-02-01T01:56:40;101413.50;;;6.86;42.87
50852;BME280;43953;45.508;-122.806;2023-02-01T01:57:46;101412.03;;;6.83;42.33
50852;BME280;43953;45.508;-122.806;2023-02-01T01:58:18;101426.22;;;6.84;43.03
50852;BME280;43953;45.508;-122.806;2023-02-01T01:58:51;101420.38;;;6.80;42.65
50852;BME280;43953;45.508;-122.806;2023-02-01T01:59:24;101416.84;;;6.80;42.77
50852;BME280;43953;45.508;-122.806;2023-02-01T02:00:03;101424.72;;;6.81;43.35
50852;BME280;43953;45.508;-122.806;2023-02-01T02:00:37;101423.06;;;6.80;42.98
50852;BME280;43953;45.508;-122.806;2023-02-01T02:01:09;101423.06;;;6.80;43.10
50852;BME280;43953;45.508;-122.806;2023-02-01T02:01:42;101424.03;;;6.79;43.29
50852;BME280;43953;45.508;-122.806;2023-02-01T02:02:14;101427.72;;;6.78;43.58
50852;BME280;43953;45.508;-122.806;2023-02-01T02:02:48;101432.25;;;6.78;43.17
50852;BME280;43953;45.508;-122.806;2023-02-01T02:03:30;101428.91;;;6.76;43.45
50852;BME280;43953;45.508;-122.806;2023-02-01T02:04:05;101430.56;;;6.77;43.58
50852;BME280;43953;45.508;-122.806;2023-02-01T02:04:37;101438.59;;;6.77;43.48
50852;BME280;43953;45.508;-122.806;2023-02-01T02:05:10;101435.91;;;6.77;43.81
50852;BME280;43953;45.508;-122.806;2023-02-01T02:05:43;101434.25;;;6.76;43.25
50852;BME280;43953;45.508;-122.806;2023-02-01T02:07:04;101426.56;;;6.73;43.56
50852;BME280;43953;45.508;-122.806;2023-02-01T02:07:40;101428.72;;;6.69;44.17
50852;BME280;43953;45.508;-122.806;2023-02-01T02:08:13;101426.38;;;6.66;43.89
50852;BME280;43953;45.508;-122.806;2023-02-01T02:08:45;101425.72;;;6.64;43.56
50852;BME280;43953;45.508;-122.806;2023-02-01T02:09:17;101423.22;;;6.63;43.61
50852;BME280;43953;45.508;-122.806;2023-02-01T02:09:49;101430.22;;;6.64;44.12
50852;BME280;43953;45.508;-122.806;2023-02-01T02:10:20;101424.06;;;6.63;43.44
50852;BME280;43953;45.508;-122.806;2023-02-01T02:11:15;101423.38;;;6.61;43.87
50852;BME280;43953;45.508;-122.806;2023-02-01T02:11:48;101431.41;;;6.61;43.80
50852;BME280;43953;45.508;-122.806;2023-02-01T02:12:20;101431.41;;;6.61;44.06
50852;BME280;43953;45.508;-122.806;2023-02-01T02:12:51;101424.38;;;6.60;43.56
50852;BME280;43953;45.508;-122.806;2023-02-01T02:13:23;101431.41;;;6.61;43.84
50852;BME280;43953;45.508;-122.806;2023-02-01T02:13:56;101429.41;;;6.63;43.63
50852;BME280;43953;45.508;-122.806;2023-02-01T02:14:29;101435.72;;;6.62;43.71
50852;BME280;43953;45.508;-122.806;2023-02-01T02:15:02;101441.09;;;6.62;43.57
50852;BME280;43953;45.508;-122.806;2023-02-01T02:15:42;101442.94;;;6.61;43.78
50852;BME280;43953;45.508;-122.806;2023-02-01T02:17:10;101442.25;;;6.59;43.53
50852;BME280;43953;45.508;-122.806;2023-02-01T02:18:05;101448.47;;;6.60;44.59
50852;BME280;43953;45.508;-122.806;2023-02-01T02:18:45;101450.28;;;6.59;43.85
50852;BME280;43953;45.508;-122.806;2023-02-01T02:20:45;101435.75;;;6.54;44.26
50852;BME280;43953;45.508;-122.806;2023-02-01T02:26:04;101407.78;;;6.40;44.35
50852;BME280;43953;45.508;-122.806;2023-02-01T02:26:58;101415.97;;;6.38;44.66
50852;BME280;43953;45.508;-122.806;2023-02-01T02:30:40;101428.34;;;6.40;45.12
50852;BME280;43953;45.508;-122.806;2023-02-01T02:31:59;101432.19;;;6.37;45.10
50852;BME280;43953;45.508;-122.806;2023-02-01T02:32:52;101430.81;;;6.33;45.50
50852;BME280;43953;45.508;-122.806;2023-02-01T02:33:43;101432.84;;;6.31;45.45
50852;BME280;43953;45.508;-122.806;2023-02-01T02:36:12;101431.66;;;6.25;45.44
50852;BME280;43953;45.508;-122.806;2023-02-01T02:39:03;101434.47;;;6.15;45.14
50852;BME280;43953;45.508;-122.806;2023-02-01T02:39:46;101436.28;;;6.15;45.68
50852;BME280;43953;45.508;-122.806;2023-02-01T02:40:31;101437.47;;;6.12;45.33
50852;BME280;43953;45.508;-122.806;2023-02-01T02:43:05;101440.31;;;6.11;45.04
50852;BME280;43953;45.508;-122.806;2023-02-01T02:43:43;101441.31;;;6.10;45.18
50852;BME280;43953;45.508;-122.806;2023-02-01T02:46:43;101435.13;;;6.09;45.53
50852;BME280;43953;45.508;-122.806;2023-02-01T02:48:42;101427.94;;;6.10;45.96
50852;BME280;43953;45.508;-122.806;2023-02-01T02:49:19;101417.25;;;6.10;45.52
50852;BME280;43953;45.508;-122.806;2023-02-01T02:50:15;101427.13;;;6.09;44.97
50852;BME280;43953;45.508;-122.806;2023-02-01T02:51:54;101430.25;;;6.05;46.16
50852;BME280;43953;45.508;-122.806;2023-02-01T02:52:51;101426.75;;;6.04;45.89
50852;BME280;43953;45.508;-122.806;2023-02-01T02:53:53;101423.25;;;6.04;45.08
50852;BME280;43953;45.508;-122.806;2023-02-01T02:54:48;101425.06;;;6.03;44.99
50852;BME280;43953;45.508;-122.806;2023-02-01T02:55:24;101430.25;;;6.05;44.77
50852;BME280;43953;45.508;-122.806;2023-02-01T02:55:59;101422.09;;;6.06;45.31
50852;BME280;43953;45.508;-122.806;2023-02-01T02:56:50;101418.72;;;6.04;45.26
50852;BME280;43953;45.508;-122.806;2023-02-01T02:57:44;101417.22;;;6.02;45.52
50852;BME280;43953;45.508;-122.806;2023-02-01T02:58:34;101410.03;;;6.02;45.17
50852;BME280;43953;45.508;-122.806;2023-02-01T02:59:26;101415.56;;;6.01;45.16
50852;BME280;43953;45.508;-122.806;2023-02-01T03:00:26;101416.38;;;6.01;45.55
50852;BME280;43953;45.508;-122.806;2023-02-01T03:01:18;101416.19;;;6.03;45.69
50852;BME280;43953;45.508;-122.806;2023-02-01T03:02:08;101408.38;;;6.01;45.15
50852;BME280;43953;45.508;-122.806;2023-02-01T03:02:59;101405.84;;;6.00;45.47
50852;BME280;43953;45.508;-122.806;2023-02-01T03:03:50;101401.66;;;5.97;46.12
50852;BME280;43953;45.508;-122.806;2023-02-01T03:04:39;101404.50;;;5.96;45.72
50852;BME280;43953;45.508;-122.806;2023-02-01T03:05:12;101405.50;;;5.95;46.25
50852;BME280;43953;45.508;-122.806;2023-02-01T03:05:46;101407.16;;;5.96;45.89
50852;BME280;43953;45.508;-122.806;2023-02-01T03:06:19;101407.16;;;5.96;45.96
50852;BME280;43953;45.508;-122.806;2023-02-01T03:06:54;101407.84;;;5.98;45.53
50852;BME280;43953;45.508;-122.806;2023-02-01T03:08:18;101413.84;;;6.00;45.33
50852;BME280;43953;45.508;-122.806;2023-02-01T03:08:51;101414.69;;;6.00;45.84
50852;BME280;43953;45.508;-122.806;2023-02-01T03:09:31;101401.31;;;6.00;45.65
50852;BME280;43953;45.508;-122.806;2023-02-01T03:10:16;101410.19;;;6.01;45.56
50852;BME280;43953;45.508;-122.806;2023-02-01T03:11:36;101413.84;;;6.00;45.45
50852;BME280;43953;45.508;-122.806;2023-02-01T03:12:35;101413.19;;;5.98;45.18
50852;BME280;43953;45.508;-122.806;2023-02-01T03:14:12;101409.66;;;5.97;45.53
50852;BME280;43953;45.508;-122.806;2023-02-01T03:14:20;101403.66;;;5.95;45.27
50852;BME280;43953;45.508;-122.806;2023-02-01T03:14:57;101403.50;;;5.97;45.35
50852;BME280;43953;45.508;-122.806;2023-02-01T03:17:13;101405.50;;;5.95;45.02
50852;BME280;43953;45.508;-122.806;2023-02-01T03:17:45;101402.84;;;5.95;45.07
50852;BME280;43953;45.508;-122.806;2023-02-01T03:18:26;101398.47;;;5.93;45.13
50852;BME280;43953;45.508;-122.806;2023-02-01T03:19:42;101397.75;;;5.91;45.69
50852;BME280;43953;45.508;-122.806;2023-02-01T03:20:19;101395.06;;;5.91;45.11
50852;BME280;43953;45.508;-122.806;2023-02-01T03:20:52;101397.75;;;5.91;44.88
50852;BME280;43953;45.508;-122.806;2023-02-01T03:21:29;101401.97;;;5.94;44.83
50852;BME280;43953;45.508;-122.806;2023-02-01T03:22:09;101392.97;;;5.95;45.06
50852;BME280;43953;45.508;-122.806;2023-02-01T03:22:44;101393.81;;;5.96;45.77
50852;BME280;43953;45.508;-122.806;2023-02-01T03:23:21;101385.94;;;5.94;45.02
50852;BME280;43953;45.508;-122.806;2023-02-01T03:23:59;101384.97;;;5.95;45.33
50852;BME280;43953;45.508;-122.806;2023-02-01T03:25:12;101390.13;;;5.97;45.70
50852;BME280;43953;45.508;-122.806;2023-02-01T03:25:48;101388.47;;;5.96;44.88
50852;BME280;43953;45.508;-122.806;2023-02-01T03:26:22;101390.13;;;5.97;45.40